sensor_id;sensor_type;location;lat;lon;timestamp;P1;durP1;ratioP1;P2;durP2;ratioP2
12228;SDS011;6177;52.402;9.800;2023-04-28T00:02:27;2.50;;;2.30;;
12228;SDS011;6177;52.402;9.800;2023-04-28T00:05:18;2.83;;;2.63;;
12228;SDS011;6177;52.402;9.800;2023-04-28T00:08:10;3.27;;;2.47;;
12228;SDS011;6177;52.402;9.800;2023-04-28T00:11:01;2.60;;;2.40;;
12228;SDS011;6177;52.402;9.800;2023-04-28T00:13:52;3.70;;;2.67;;
12228;SDS011;6177;52.402;9.800;2023-04-28T00:16:43;2.83;;;2.60;;
12228;SDS011;6177;52.402;9.800;2023-04-28T00:19:34;3.27;;;2.57;;
12228;SDS011;6177;52.402;9.800;2023-04-28T00:22:25;2.80;;;2.57;;
12228;SDS011;6177;52.402;9.800;2023-04-28T00:25:16;4.43;;;2.83;;
12228;SDS011;6177;52.402;9.800;2023-04-28T00:28:07;2.97;;;2.70;;
12228;SDS011;6177;52.402;9.800;2023-04-28T00:30:58;4.53;;;3.23;;
12228;SDS011;6177;52.402;9.800;2023-04-28T00:33:48;2.80;;;2.47;;
12228;SDS011;6177;52.402;9.800;2023-04-28T00:36:39;3.10;;;2.80;;
12228;SDS011;6177;52.402;9.800;2023-04-28T00:39:29;6.40;;;2.90;;
12228;SDS011;6177;52.402;9.800;2023-04-28T00:42:21;2.63;;;2.43;;
12228;SDS011;6177;52.402;9.800;2023-04-28T00:45:12;2.73;;;2.57;;
12228;SDS011;6177;52.402;9.800;2023-04-28T00:48:04;2.87;;;2.60;;
12228;SDS011;6177;52.402;9.800;2023-04-28T00:50:54;5.73;;;3.10;;
12228;SDS011;6177;52.402;9.800;2023-04-28T00:53:45;2.97;;;2.73;;
12228;SDS011;6177;52.402;9.800;2023-04-28T00:56:37;3.10;;;2.90;;
12228;SDS011;6177;52.402;9.800;2023-04-28T00:59:28;2.90;;;2.50;;
12228;SDS011;6177;52.402;9.800;2023-04-28T01:02:19;2.83;;;2.50;;
12228;SDS011;6177;52.402;9.800;2023-04-28T01:05:11;3.23;;;2.93;;
12228;SDS011;6177;52.402;9.800;2023-04-28T01:08:03;3.40;;;2.60;;
12228;SDS011;6177;52.402;9.800;2023-04-28T01:10:53;2.90;;;2.80;;
12228;SDS011;6177;52.402;9.800;2023-04-28T01:14:03;5.97;;;2.90;;
12228;SDS011;6177;52.402;9.800;2023-04-28T01:16:57;4.43;;;2.73;;
12228;SDS011;6177;52.402;9.800;2023-04-28T01:19:48;3.03;;;2.73;;
12228;SDS011;6177;52.402;9.800;2023-04-28T01:22:39;3.27;;;3.07;;
12228;SDS011;6177;52.402;9.800;2023-04-28T01:25:30;2.87;;;2.67;;
12228;SDS011;6177;52.402;9.800;2023-04-28T01:28:21;2.97;;;2.80;;
12228;SDS011;6177;52.402;9.800;2023-04-28T01:31:11;3.43;;;3.13;;
12228;SDS011;6177;52.402;9.800;2023-04-28T01:34:01;3.10;;;2.90;;
12228;SDS011;6177;52.402;9.800;2023-04-28T01:36:52;3.20;;;2.90;;
12228;SDS011;6177;52.402;9.800;2023-04-28T01:39:43;3.30;;;2.70;;
12228;SDS011;6177;52.402;9.800;2023-04-28T01:42:34;3.83;;;3.27;;
12228;SDS011;6177;52.402;9.800;2023-04-28T01:45:26;3.63;;;2.80;;
12228;SDS011;6177;52.402;9.800;2023-04-28T01:48:17;3.60;;;3.30;;
12228;SDS011;6177;52.402;9.800;2023-04-28T01:51:09;3.57;;;2.93;;
12228;SDS011;6177;52.402;9.800;2023-04-28T01:54:01;3.23;;;2.93;;
12228;SDS011;6177;52.402;9.800;2023-04-28T01:56:53;3.93;;;3.17;;
12228;SDS011;6177;52.402;9.800;2023-04-28T01:59:45;4.00;;;3.07;;
12228;SDS011;6177;52.402;9.800;2023-04-28T02:02:36;6.60;;;3.07;;
12228;SDS011;6177;52.402;9.800;2023-04-28T02:05:27;3.67;;;3.43;;
12228;SDS011;6177;52.402;9.800;2023-04-28T02:08:17;4.07;;;3.30;;
12228;SDS011;6177;52.402;9.800;2023-04-28T02:11:08;3.77;;;3.20;;
12228;SDS011;6177;52.402;9.800;2023-04-28T02:13:58;3.63;;;3.40;;
12228;SDS011;6177;52.402;9.800;2023-04-28T02:16:49;3.77;;;3.30;;
12228;SDS011;6177;52.402;9.800;2023-04-28T02:19:40;5.87;;;3.10;;
12228;SDS011;6177;52.402;9.800;2023-04-28T02:22:31;3.77;;;3.47;;
12228;SDS011;6177;52.402;9.800;2023-04-28T02:25:23;3.63;;;3.40;;
12228;SDS011;6177;52.402;9.800;2023-04-28T02:28:13;5.73;;;3.60;;
12228;SDS011;6177;52.402;9.800;2023-04-28T02:31:08;3.23;;;2.93;;
12228;SDS011;6177;52.402;9.800;2023-04-28T02:34:00;4.30;;;3.90;;
12228;SDS011;6177;52.402;9.800;2023-04-28T02:36:51;3.90;;;3.20;;
12228;SDS011;6177;52.402;9.800;2023-04-28T02:39:41;4.83;;;3.30;;
12228;SDS011;6177;52.402;9.800;2023-04-28T02:42:33;4.50;;;3.20;;
12228;SDS011;6177;52.402;9.800;2023-04-28T02:45:24;3.37;;;3.10;;
12228;SDS011;6177;52.402;9.800;2023-04-28T02:48:15;3.93;;;3.67;;
12228;SDS011;6177;52.402;9.800;2023-04-28T02:51:05;3.80;;;3.17;;
12228;SDS011;6177;52.402;9.800;2023-04-28T02:53:56;3.53;;;3.33;;
12228;SDS011;6177;52.402;9.800;2023-04-28T02:56:48;3.40;;;3.20;;
12228;SDS011;6177;52.402;9.800;2023-04-28T02:59:39;6.20;;;3.47;;
12228;SDS011;6177;52.402;9.800;2023-04-28T03:02:29;3.27;;;3.07;;
12228;SDS011;6177;52.402;9.800;2023-04-28T03:05:21;3.90;;;3.60;;
12228;SDS011;6177;52.402;9.800;2023-04-28T03:08:12;8.17;;;3.37;;
12228;SDS011;6177;52.402;9.800;2023-04-28T03:11:04;3.70;;;3.13;;
12228;SDS011;6177;52.402;9.800;2023-04-28T03:13:55;5.03;;;3.30;;
12228;SDS011;6177;52.402;9.800;2023-04-28T03:16:45;3.57;;;3.27;;
12228;SDS011;6177;52.402;9.800;2023-04-28T03:19:36;5.33;;;3.33;;
12228;SDS011;6177;52.402;9.800;2023-04-28T03:22:28;3.57;;;2.73;;
12228;SDS011;6177;52.402;9.800;2023-04-28T03:25:19;5.80;;;3.10;;
12228;SDS011;6177;52.402;9.800;2023-04-28T03:28:12;3.10;;;2.93;;
12228;SDS011;6177;52.402;9.800;2023-04-28T03:31:03;3.77;;;3.30;;
12228;SDS011;6177;52.402;9.800;2023-04-28T03:33:54;4.23;;;3.93;;
12228;SDS011;6177;52.402;9.800;2023-04-28T03:36:45;3.47;;;3.13;;
12228;SDS011;6177;52.402;9.800;2023-04-28T03:39:44;3.67;;;3.37;;
12228;SDS011;6177;52.402;9.800;2023-04-28T03:42:34;4.10;;;3.33;;
12228;SDS011;6177;52.402;9.800;2023-04-28T03:45:32;3.50;;;3.20;;
12228;SDS011;6177;52.402;9.800;2023-04-28T03:48:23;3.90;;;3.57;;
12228;SDS011;6177;52.402;9.800;2023-04-28T03:51:14;7.23;;;3.50;;
12228;SDS011;6177;52.402;9.800;2023-04-28T03:54:05;3.60;;;3.40;;
12228;SDS011;6177;52.402;9.800;2023-04-28T03:56:56;3.30;;;3.20;;
12228;SDS011;6177;52.402;9.800;2023-04-28T03:59:47;3.67;;;3.37;;
12228;SDS011;6177;52.402;9.800;2023-04-28T04:02:39;3.93;;;3.53;;
12228;SDS011;6177;52.402;9.800;2023-04-28T04:05:30;3.40;;;3.10;;
12228;SDS011;6177;52.402;9.800;2023-04-28T04:08:21;3.77;;;3.43;;
12228;SDS011;6177;52.402;9.800;2023-04-28T04:11:13;3.60;;;3.30;;
12228;SDS011;6177;52.402;9.800;2023-04-28T04:14:04;3.93;;;3.63;;
12228;SDS011;6177;52.402;9.800;2023-04-28T04:16:55;3.60;;;3.40;;
12228;SDS011;6177;52.402;9.800;2023-04-28T04:19:46;7.07;;;3.77;;
12228;SDS011;6177;52.402;9.800;2023-04-28T04:22:37;4.27;;;3.40;;
12228;SDS011;6177;52.402;9.800;2023-04-28T04:25:28;3.37;;;3.23;;
12228;SDS011;6177;52.402;9.800;2023-04-28T04:28:20;4.93;;;3.83;;
12228;SDS011;6177;52.402;9.800;2023-04-28T04:31:12;5.20;;;3.37;;
12228;SDS011;6177;52.402;9.800;2023-04-28T04:34:03;4.13;;;3.33;;
12228;SDS011;6177;52.402;9.800;2023-04-28T04:36:54;4.10;;;3.60;;
12228;SDS011;6177;52.402;9.800;2023-04-28T04:39:45;4.30;;;3.87;;
12228;SDS011;6177;52.402;9.800;2023-04-28T04:42:36;5.00;;;3.57;;
12228;SDS011;6177;52.402;9.800;2023-04-28T04:45:39;6.47;;;4.03;;
12228;SDS011;6177;52.402;9.800;2023-04-28T04:48:30;4.70;;;4.40;;
12228;SDS011;6177;52.402;9.800;2023-04-28T04:51:21;6.13;;;4.03;;
12228;SDS011;6177;52.402;9.800;2023-04-28T04:54:12;3.77;;;3.43;;
12228;SDS011;6177;52.402;9.800;2023-04-28T04:57:05;3.73;;;3.40;;
12228;SDS011;6177;52.402;9.800;2023-04-28T05:00:17;5.43;;;3.50;;
12228;SDS011;6177;52.402;9.800;2023-04-28T05:03:09;3.93;;;3.50;;
12228;SDS011;6177;52.402;9.800;2023-04-28T05:06:00;3.63;;;3.40;;
12228;SDS011;6177;52.402;9.800;2023-04-28T05:09:12;3.93;;;3.63;;
12228;SDS011;6177;52.402;9.800;2023-04-28T05:12:03;4.27;;;3.97;;
12228;SDS011;6177;52.402;9.800;2023-04-28T05:14:54;4.23;;;3.77;;
12228;SDS011;6177;52.402;9.800;2023-04-28T05:17:44;3.83;;;3.50;;
12228;SDS011;6177;52.402;9.800;2023-04-28T05:20:35;6.73;;;4.63;;
12228;SDS011;6177;52.402;9.800;2023-04-28T05:23:27;4.83;;;3.77;;
12228;SDS011;6177;52.402;9.800;2023-04-28T05:26:19;7.73;;;4.10;;
12228;SDS011;6177;52.402;9.800;2023-04-28T05:29:10;8.27;;;4.93;;
12228;SDS011;6177;52.402;9.800;2023-04-28T05:32:01;7.30;;;4.20;;
12228;SDS011;6177;52.402;9.800;2023-04-28T05:34:51;6.63;;;4.23;;
12228;SDS011;6177;52.402;9.800;2023-04-28T05:37:42;6.33;;;4.20;;
12228;SDS011;6177;52.402;9.800;2023-04-28T05:40:34;7.63;;;4.33;;
12228;SDS011;6177;52.402;9.800;2023-04-28T05:43:24;8.00;;;4.73;;
12228;SDS011;6177;52.402;9.800;2023-04-28T05:46:17;7.63;;;4.83;;
12228;SDS011;6177;52.402;9.800;2023-04-28T05:49:08;7.40;;;5.00;;
12228;SDS011;6177;52.402;9.800;2023-04-28T05:52:01;7.40;;;4.53;;
12228;SDS011;6177;52.402;9.800;2023-04-28T05:54:52;7.37;;;5.00;;
12228;SDS011;6177;52.402;9.800;2023-04-28T05:57:43;10.80;;;5.03;;
12228;SDS011;6177;52.402;9.800;2023-04-28T06:00:35;8.23;;;7.03;;
12228;SDS011;6177;52.402;9.800;2023-04-28T06:03:26;8.47;;;7.20;;
12228;SDS011;6177;52.402;9.800;2023-04-28T06:06:17;10.17;;;6.03;;
12228;SDS011;6177;52.402;9.800;2023-04-28T06:09:08;5.93;;;5.03;;
12228;SDS011;6177;52.402;9.800;2023-04-28T06:11:59;6.37;;;4.90;;
12228;SDS011;6177;52.402;9.800;2023-04-28T06:14:50;6.20;;;4.63;;
12228;SDS011;6177;52.402;9.800;2023-04-28T06:17:44;6.95;;;4.97;;
12228;SDS011;6177;52.402;9.800;2023-04-28T06:20:35;6.13;;;5.10;;
12228;SDS011;6177;52.402;9.800;2023-04-28T06:23:26;10.43;;;4.40;;
12228;SDS011;6177;52.402;9.800;2023-04-28T06:26:18;9.13;;;4.87;;
12228;SDS011;6177;52.402;9.800;2023-04-28T06:29:09;6.77;;;5.23;;
12228;SDS011;6177;52.402;9.800;2023-04-28T06:32:00;6.33;;;5.03;;
12228;SDS011;6177;52.402;9.800;2023-04-28T06:34:51;7.93;;;5.43;;
12228;SDS011;6177;52.402;9.800;2023-04-28T06:37:42;8.40;;;6.07;;
12228;SDS011;6177;52.402;9.800;2023-04-28T06:40:33;6.83;;;5.63;;
12228;SDS011;6177;52.402;9.800;2023-04-28T06:43:24;7.73;;;4.90;;
12228;SDS011;6177;52.402;9.800;2023-04-28T06:46:29;7.90;;;5.40;;
12228;SDS011;6177;52.402;9.800;2023-04-28T06:49:20;9.20;;;5.60;;
12228;SDS011;6177;52.402;9.800;2023-04-28T06:52:12;6.47;;;4.93;;
12228;SDS011;6177;52.402;9.800;2023-04-28T06:55:04;6.77;;;5.17;;
12228;SDS011;6177;52.402;9.800;2023-04-28T06:57:58;6.93;;;5.53;;
12228;SDS011;6177;52.402;9.800;2023-04-28T07:00:50;9.00;;;5.87;;
12228;SDS011;6177;52.402;9.800;2023-04-28T07:03:40;5.60;;;5.20;;
12228;SDS011;6177;52.402;9.800;2023-04-28T07:06:31;9.57;;;6.50;;
12228;SDS011;6177;52.402;9.800;2023-04-28T07:09:22;7.07;;;6.37;;
12228;SDS011;6177;52.402;9.800;2023-04-28T07:12:13;6.33;;;5.63;;
12228;SDS011;6177;52.402;9.800;2023-04-28T07:15:05;6.60;;;5.60;;
12228;SDS011;6177;52.402;9.800;2023-04-28T07:17:57;6.73;;;6.03;;
12228;SDS011;6177;52.402;9.800;2023-04-28T07:20:48;42.57;;;38.07;;
12228;SDS011;6177;52.402;9.800;2023-04-28T07:23:39;13.70;;;10.53;;
12228;SDS011;6177;52.402;9.800;2023-04-28T07:26:32;9.77;;;6.97;;
12228;SDS011;6177;52.402;9.800;2023-04-28T07:29:22;7.37;;;6.57;;
12228;SDS011;6177;52.402;9.800;2023-04-28T07:32:14;8.30;;;6.83;;
12228;SDS011;6177;52.402;9.800;2023-04-28T07:35:05;6.83;;;6.33;;
12228;SDS011;6177;52.402;9.800;2023-04-28T07:37:56;7.23;;;6.53;;
12228;SDS011;6177;52.402;9.800;2023-04-28T07:40:47;7.27;;;6.70;;
12228;SDS011;6177;52.402;9.800;2023-04-28T07:43:38;8.53;;;6.63;;
12228;SDS011;6177;52.402;9.800;2023-04-28T07:46:31;8.83;;;6.90;;
12228;SDS011;6177;52.402;9.800;2023-04-28T07:49:22;9.03;;;7.50;;
12228;SDS011;6177;52.402;9.800;2023-04-28T07:52:13;13.77;;;6.87;;
12228;SDS011;6177;52.402;9.800;2023-04-28T07:55:04;9.63;;;7.07;;
12228;SDS011;6177;52.402;9.800;2023-04-28T07:57:55;8.33;;;7.63;;
12228;SDS011;6177;52.402;9.800;2023-04-28T08:00:48;8.07;;;7.27;;
12228;SDS011;6177;52.402;9.800;2023-04-28T08:03:39;11.33;;;8.10;;
12228;SDS011;6177;52.402;9.800;2023-04-28T08:06:30;10.03;;;7.27;;
12228;SDS011;6177;52.402;9.800;2023-04-28T08:09:22;8.65;;;7.35;;
12228;SDS011;6177;52.402;9.800;2023-04-28T08:12:13;9.27;;;7.28;;
12228;SDS011;6177;52.402;9.800;2023-04-28T08:15:04;13.17;;;8.00;;
12228;SDS011;6177;52.402;9.800;2023-04-28T08:17:55;8.88;;;8.07;;
12228;SDS011;6177;52.402;9.800;2023-04-28T08:20:46;8.38;;;7.55;;
12228;SDS011;6177;52.402;9.800;2023-04-28T08:23:37;14.53;;;8.17;;
12228;SDS011;6177;52.402;9.800;2023-04-28T08:26:28;8.95;;;8.10;;
12228;SDS011;6177;52.402;9.800;2023-04-28T08:29:19;10.13;;;7.55;;
12228;SDS011;6177;52.402;9.800;2023-04-28T08:32:10;8.40;;;7.55;;
12228;SDS011;6177;52.402;9.800;2023-04-28T08:35:01;10.98;;;7.75;;
12228;SDS011;6177;52.402;9.800;2023-04-28T08:37:52;10.02;;;8.35;;
12228;SDS011;6177;52.402;9.800;2023-04-28T08:40:43;10.45;;;8.35;;
12228;SDS011;6177;52.402;9.800;2023-04-28T08:43:34;8.80;;;7.88;;
12228;SDS011;6177;52.402;9.800;2023-04-28T08:46:26;8.83;;;8.03;;
12228;SDS011;6177;52.402;9.800;2023-04-28T08:49:17;17.58;;;8.10;;
12228;SDS011;6177;52.402;9.800;2023-04-28T08:52:12;13.90;;;9.10;;
12228;SDS011;6177;52.402;9.800;2023-04-28T08:55:09;9.63;;;8.63;;
12228;SDS011;6177;52.402;9.800;2023-04-28T08:58:02;9.98;;;7.75;;
12228;SDS011;6177;52.402;9.800;2023-04-28T09:00:53;9.20;;;8.18;;
12228;SDS011;6177;52.402;9.800;2023-04-28T09:03:44;8.45;;;7.75;;
12228;SDS011;6177;52.402;9.800;2023-04-28T09:06:37;8.52;;;7.72;;
12228;SDS011;6177;52.402;9.800;2023-04-28T09:09:28;8.88;;;8.05;;
12228;SDS011;6177;52.402;9.800;2023-04-28T09:12:20;12.07;;;8.65;;
12228;SDS011;6177;52.402;9.800;2023-04-28T09:15:35;10.10;;;7.70;;
12228;SDS011;6177;52.402;9.800;2023-04-28T09:18:25;8.13;;;7.47;;
12228;SDS011;6177;52.402;9.800;2023-04-28T09:21:16;12.15;;;8.48;;
12228;SDS011;6177;52.402;9.800;2023-04-28T09:24:07;8.50;;;7.30;;
12228;SDS011;6177;52.402;9.800;2023-04-28T09:27:02;8.32;;;6.93;;
12228;SDS011;6177;52.402;9.800;2023-04-28T09:29:54;9.88;;;7.35;;
12228;SDS011;6177;52.402;9.800;2023-04-28T09:32:46;7.53;;;6.82;;
12228;SDS011;6177;52.402;9.800;2023-04-28T09:35:54;8.38;;;7.57;;
12228;SDS011;6177;52.402;9.800;2023-04-28T09:38:45;11.48;;;7.95;;
12228;SDS011;6177;52.402;9.800;2023-04-28T09:44:31;7.88;;;7.28;;
12228;SDS011;6177;52.402;9.800;2023-04-28T09:47:21;9.20;;;7.68;;
12228;SDS011;6177;52.402;9.800;2023-04-28T09:50:13;9.77;;;7.28;;
12228;SDS011;6177;52.402;9.800;2023-04-28T09:53:06;9.13;;;8.23;;
12228;SDS011;6177;52.402;9.800;2023-04-28T09:56:02;8.50;;;7.70;;
12228;SDS011;6177;52.402;9.800;2023-04-28T09:58:57;7.50;;;6.82;;
12228;SDS011;6177;52.402;9.800;2023-04-28T10:01:48;8.13;;;7.05;;
12228;SDS011;6177;52.402;9.800;2023-04-28T10:04:38;7.82;;;7.13;;
12228;SDS011;6177;52.402;9.800;2023-04-28T10:07:30;9.82;;;7.35;;
12228;SDS011;6177;52.402;9.800;2023-04-28T10:10:25;10.38;;;7.38;;
12228;SDS011;6177;52.402;9.800;2023-04-28T10:13:18;8.68;;;7.80;;
12228;SDS011;6177;52.402;9.800;2023-04-28T10:16:10;18.80;;;17.10;;
12228;SDS011;6177;52.402;9.800;2023-04-28T10:19:02;12.10;;;9.60;;
12228;SDS011;6177;52.402;9.800;2023-04-28T10:22:01;8.82;;;7.90;;
12228;SDS011;6177;52.402;9.800;2023-04-28T10:28:06;8.32;;;7.18;;
12228;SDS011;6177;52.402;9.800;2023-04-28T10:31:14;8.35;;;7.32;;
12228;SDS011;6177;52.402;9.800;2023-04-28T10:34:27;8.88;;;7.10;;
12228;SDS011;6177;52.402;9.800;2023-04-28T10:37:18;7.75;;;6.82;;
12228;SDS011;6177;52.402;9.800;2023-04-28T10:46:17;11.48;;;7.75;;
12228;SDS011;6177;52.402;9.800;2023-04-28T10:49:08;9.35;;;7.28;;
12228;SDS011;6177;52.402;9.800;2023-04-28T10:51:59;11.00;;;6.90;;
12228;SDS011;6177;52.402;9.800;2023-04-28T10:55:25;8.77;;;7.85;;
12228;SDS011;6177;52.402;9.800;2023-04-28T11:01:31;7.88;;;7.00;;
12228;SDS011;6177;52.402;9.800;2023-04-28T11:04:24;8.00;;;7.07;;
12228;SDS011;6177;52.402;9.800;2023-04-28T11:07:15;9.13;;;7.55;;
12228;SDS011;6177;52.402;9.800;2023-04-28T11:10:06;8.70;;;7.20;;
12228;SDS011;6177;52.402;9.800;2023-04-28T11:13:23;9.43;;;7.18;;
12228;SDS011;6177;52.402;9.800;2023-04-28T11:16:16;10.57;;;7.70;;
12228;SDS011;6177;52.402;9.800;2023-04-28T11:19:10;8.50;;;7.20;;
12228;SDS011;6177;52.402;9.800;2023-04-28T11:22:05;8.52;;;7.68;;
12228;SDS011;6177;52.402;9.800;2023-04-28T11:25:03;8.23;;;7.22;;
12228;SDS011;6177;52.402;9.800;2023-04-28T11:27:54;8.18;;;7.30;;
12228;SDS011;6177;52.402;9.800;2023-04-28T11:31:08;12.85;;;11.65;;
12228;SDS011;6177;52.402;9.800;2023-04-28T11:34:04;8.70;;;6.70;;
12228;SDS011;6177;52.402;9.800;2023-04-28T11:37:04;8.57;;;6.93;;
12228;SDS011;6177;52.402;9.800;2023-04-28T11:40:08;7.45;;;6.75;;
12228;SDS011;6177;52.402;9.800;2023-04-28T11:43:00;6.88;;;6.38;;
12228;SDS011;6177;52.402;9.800;2023-04-28T11:45:53;8.43;;;7.35;;
12228;SDS011;6177;52.402;9.800;2023-04-28T11:48:44;7.45;;;6.75;;
12228;SDS011;6177;52.402;9.800;2023-04-28T11:51:36;8.10;;;7.32;;
12228;SDS011;6177;52.402;9.800;2023-04-28T11:54:28;8.13;;;7.20;;
12228;SDS011;6177;52.402;9.800;2023-04-28T11:57:20;8.00;;;7.38;;
12228;SDS011;6177;52.402;9.800;2023-04-28T12:00:15;8.15;;;7.32;;
12228;SDS011;6177;52.402;9.800;2023-04-28T12:03:11;9.15;;;7.65;;
12228;SDS011;6177;52.402;9.800;2023-04-28T12:06:02;7.28;;;6.63;;
12228;SDS011;6177;52.402;9.800;2023-04-28T12:08:53;8.02;;;7.22;;
12228;SDS011;6177;52.402;9.800;2023-04-28T12:14:56;8.20;;;7.43;;
12228;SDS011;6177;52.402;9.800;2023-04-28T12:17:47;7.63;;;6.95;;
12228;SDS011;6177;52.402;9.800;2023-04-28T12:20:38;8.00;;;7.30;;
12228;SDS011;6177;52.402;9.800;2023-04-28T12:23:32;7.38;;;6.65;;
12228;SDS011;6177;52.402;9.800;2023-04-28T12:26:24;8.82;;;7.22;;
12228;SDS011;6177;52.402;9.800;2023-04-28T12:32:45;8.57;;;7.72;;
12228;SDS011;6177;52.402;9.800;2023-04-28T12:35:36;7.97;;;7.25;;
12228;SDS011;6177;52.402;9.800;2023-04-28T12:38:26;8.20;;;7.50;;
12228;SDS011;6177;52.402;9.800;2023-04-28T12:41:17;8.13;;;7.32;;
12228;SDS011;6177;52.402;9.800;2023-04-28T12:44:08;7.95;;;7.22;;
12228;SDS011;6177;52.402;9.800;2023-04-28T12:46:59;7.97;;;7.20;;
12228;SDS011;6177;52.402;9.800;2023-04-28T12:49:57;7.57;;;6.97;;
12228;SDS011;6177;52.402;9.800;2023-04-28T12:52:47;8.63;;;7.90;;
12228;SDS011;6177;52.402;9.800;2023-04-28T12:55:37;8.35;;;7.30;;
12228;SDS011;6177;52.402;9.800;2023-04-28T12:58:29;7.47;;;6.82;;
12228;SDS011;6177;52.402;9.800;2023-04-28T13:01:19;7.95;;;7.45;;
12228;SDS011;6177;52.402;9.800;2023-04-28T13:04:09;7.90;;;7.20;;
12228;SDS011;6177;52.402;9.800;2023-04-28T13:07:02;8.75;;;7.85;;
12228;SDS011;6177;52.402;9.800;2023-04-28T13:09:54;8.35;;;7.68;;
12228;SDS011;6177;52.402;9.800;2023-04-28T13:12:45;8.10;;;7.50;;
12228;SDS011;6177;52.402;9.800;2023-04-28T13:15:36;8.07;;;7.22;;
12228;SDS011;6177;52.402;9.800;2023-04-28T13:18:27;8.20;;;7.43;;
12228;SDS011;6177;52.402;9.800;2023-04-28T13:21:19;8.38;;;7.57;;
12228;SDS011;6177;52.402;9.800;2023-04-28T13:24:10;8.45;;;7.72;;
12228;SDS011;6177;52.402;9.800;2023-04-28T13:27:01;8.27;;;7.43;;
12228;SDS011;6177;52.402;9.800;2023-04-28T13:29:53;8.93;;;7.95;;
12228;SDS011;6177;52.402;9.800;2023-04-28T13:32:48;8.98;;;7.82;;
12228;SDS011;6177;52.402;9.800;2023-04-28T13:35:39;8.38;;;7.63;;
12228;SDS011;6177;52.402;9.800;2023-04-28T13:38:30;8.70;;;7.85;;
12228;SDS011;6177;52.402;9.800;2023-04-28T13:41:21;9.27;;;8.13;;
12228;SDS011;6177;52.402;9.800;2023-04-28T13:44:12;9.63;;;7.50;;
12228;SDS011;6177;52.402;9.800;2023-04-28T13:47:03;8.82;;;8.02;;
12228;SDS011;6177;52.402;9.800;2023-04-28T13:49:55;9.27;;;8.48;;
12228;SDS011;6177;52.402;9.800;2023-04-28T13:52:46;9.52;;;8.65;;
12228;SDS011;6177;52.402;9.800;2023-04-28T13:55:37;10.45;;;9.40;;
12228;SDS011;6177;52.402;9.800;2023-04-28T13:58:28;9.38;;;8.57;;
12228;SDS011;6177;52.402;9.800;2023-04-28T14:01:19;9.88;;;8.82;;
12228;SDS011;6177;52.402;9.800;2023-04-28T14:04:10;10.27;;;9.30;;
12228;SDS011;6177;52.402;9.800;2023-04-28T14:07:01;11.05;;;9.40;;
12228;SDS011;6177;52.402;9.800;2023-04-28T14:09:52;9.38;;;8.35;;
12228;SDS011;6177;52.402;9.800;2023-04-28T14:12:43;10.75;;;9.70;;
12228;SDS011;6177;52.402;9.800;2023-04-28T14:15:34;9.85;;;8.98;;
12228;SDS011;6177;52.402;9.800;2023-04-28T14:18:25;11.40;;;9.38;;
12228;SDS011;6177;52.402;9.800;2023-04-28T14:21:17;9.60;;;8.77;;
12228;SDS011;6177;52.402;9.800;2023-04-28T14:24:08;9.55;;;8.88;;
12228;SDS011;6177;52.402;9.800;2023-04-28T14:26:59;10.75;;;9.38;;
12228;SDS011;6177;52.402;9.800;2023-04-28T14:29:50;10.15;;;9.30;;
12228;SDS011;6177;52.402;9.800;2023-04-28T14:32:41;9.27;;;8.68;;
12228;SDS011;6177;52.402;9.800;2023-04-28T14:35:32;10.75;;;9.65;;
12228;SDS011;6177;52.402;9.800;2023-04-28T14:38:23;10.60;;;9.65;;
12228;SDS011;6177;52.402;9.800;2023-04-28T14:41:14;10.05;;;9.27;;
12228;SDS011;6177;52.402;9.800;2023-04-28T14:44:05;11.20;;;10.05;;
12228;SDS011;6177;52.402;9.800;2023-04-28T14:46:57;10.45;;;9.50;;
12228;SDS011;6177;52.402;9.800;2023-04-28T14:49:48;10.50;;;9.50;;
12228;SDS011;6177;52.402;9.800;2023-04-28T14:52:39;11.48;;;9.98;;
12228;SDS011;6177;52.402;9.800;2023-04-28T14:55:30;10.38;;;9.55;;
12228;SDS011;6177;52.402;9.800;2023-04-28T14:58:21;10.68;;;9.23;;
12228;SDS011;6177;52.402;9.800;2023-04-28T15:01:12;11.50;;;10.48;;
12228;SDS011;6177;52.402;9.800;2023-04-28T15:04:03;13.93;;;12.75;;
12228;SDS011;6177;52.402;9.800;2023-04-28T15:06:55;11.70;;;10.65;;
12228;SDS011;6177;52.402;9.800;2023-04-28T15:09:46;10.55;;;9.65;;
12228;SDS011;6177;52.402;9.800;2023-04-28T15:12:37;11.23;;;10.27;;
12228;SDS011;6177;52.402;9.800;2023-04-28T15:15:28;11.40;;;9.55;;
12228;SDS011;6177;52.402;9.800;2023-04-28T15:18:19;12.35;;;9.88;;
12228;SDS011;6177;52.402;9.800;2023-04-28T15:21:10;11.43;;;10.30;;
12228;SDS011;6177;52.402;9.800;2023-04-28T15:24:01;10.75;;;9.75;;
12228;SDS011;6177;52.402;9.800;2023-04-28T15:26:52;12.23;;;11.20;;
12228;SDS011;6177;52.402;9.800;2023-04-28T15:29:43;11.93;;;10.68;;
12228;SDS011;6177;52.402;9.800;2023-04-28T15:32:35;11.60;;;10.48;;
12228;SDS011;6177;52.402;9.800;2023-04-28T15:35:26;10.73;;;9.73;;
12228;SDS011;6177;52.402;9.800;2023-04-28T15:38:18;11.70;;;10.48;;
12228;SDS011;6177;52.402;9.800;2023-04-28T15:41:13;11.02;;;10.18;;
12228;SDS011;6177;52.402;9.800;2023-04-28T15:44:04;11.63;;;10.30;;
12228;SDS011;6177;52.402;9.800;2023-04-28T15:46:55;11.35;;;10.35;;
12228;SDS011;6177;52.402;9.800;2023-04-28T15:49:46;11.30;;;10.45;;
12228;SDS011;6177;52.402;9.800;2023-04-28T15:52:40;10.63;;;9.82;;
12228;SDS011;6177;52.402;9.800;2023-04-28T15:55:38;10.45;;;9.68;;
12228;SDS011;6177;52.402;9.800;2023-04-28T15:58:29;10.73;;;9.88;;
12228;SDS011;6177;52.402;9.800;2023-04-28T16:01:20;10.77;;;9.88;;
12228;SDS011;6177;52.402;9.800;2023-04-28T16:04:11;11.15;;;10.10;;
12228;SDS011;6177;52.402;9.800;2023-04-28T16:07:01;10.50;;;9.52;;
12228;SDS011;6177;52.402;9.800;2023-04-28T16:09:53;11.27;;;10.05;;
12228;SDS011;6177;52.402;9.800;2023-04-28T16:12:44;10.98;;;10.02;;
12228;SDS011;6177;52.402;9.800;2023-04-28T16:15:35;9.88;;;8.98;;
12228;SDS011;6177;52.402;9.800;2023-04-28T16:18:26;10.65;;;9.43;;
12228;SDS011;6177;52.402;9.800;2023-04-28T16:21:17;9.65;;;8.85;;
12228;SDS011;6177;52.402;9.800;2023-04-28T16:24:08;10.73;;;9.90;;
12228;SDS011;6177;52.402;9.800;2023-04-28T16:27:00;10.40;;;9.60;;
12228;SDS011;6177;52.402;9.800;2023-04-28T16:29:51;11.43;;;9.60;;
12228;SDS011;6177;52.402;9.800;2023-04-28T16:32:42;10.30;;;9.50;;
12228;SDS011;6177;52.402;9.800;2023-04-28T16:35:33;10.95;;;9.98;;
12228;SDS011;6177;52.402;9.800;2023-04-28T16:38:24;11.75;;;10.82;;
12228;SDS011;6177;52.402;9.800;2023-04-28T16:41:15;12.77;;;11.52;;
12228;SDS011;6177;52.402;9.800;2023-04-28T16:44:06;12.65;;;11.65;;
12228;SDS011;6177;52.402;9.800;2023-04-28T16:46:57;12.65;;;11.50;;
12228;SDS011;6177;52.402;9.800;2023-04-28T16:49:48;12.95;;;11.88;;
12228;SDS011;6177;52.402;9.800;2023-04-28T16:52:39;12.67;;;11.53;;
12228;SDS011;6177;52.402;9.800;2023-04-28T16:55:30;13.15;;;11.98;;
12228;SDS011;6177;52.402;9.800;2023-04-28T16:58:21;13.63;;;12.43;;
12228;SDS011;6177;52.402;9.800;2023-04-28T17:01:12;14.63;;;13.07;;
12228;SDS011;6177;52.402;9.800;2023-04-28T17:04:03;21.60;;;19.65;;
12228;SDS011;6177;52.402;9.800;2023-04-28T17:06:56;21.48;;;19.48;;
12228;SDS011;6177;52.402;9.800;2023-04-28T17:09:48;15.68;;;14.05;;
12228;SDS011;6177;52.402;9.800;2023-04-28T17:12:39;13.57;;;12.57;;
12228;SDS011;6177;52.402;9.800;2023-04-28T17:15:30;13.07;;;12.07;;
12228;SDS011;6177;52.402;9.800;2023-04-28T17:18:22;13.10;;;12.00;;
12228;SDS011;6177;52.402;9.800;2023-04-28T17:21:13;13.47;;;12.27;;
12228;SDS011;6177;52.402;9.800;2023-04-28T17:24:04;14.63;;;13.33;;
12228;SDS011;6177;52.402;9.800;2023-04-28T17:26:55;14.53;;;13.33;;
12228;SDS011;6177;52.402;9.800;2023-04-28T17:29:46;18.30;;;16.73;;
12228;SDS011;6177;52.402;9.800;2023-04-28T17:32:37;14.75;;;13.45;;
12228;SDS011;6177;52.402;9.800;2023-04-28T17:35:28;13.63;;;12.63;;
12228;SDS011;6177;52.402;9.800;2023-04-28T17:38:18;17.07;;;15.63;;
12228;SDS011;6177;52.402;9.800;2023-04-28T17:41:08;13.95;;;12.75;;
12228;SDS011;6177;52.402;9.800;2023-04-28T17:43:59;16.17;;;14.77;;
12228;SDS011;6177;52.402;9.800;2023-04-28T17:46:50;15.53;;;14.13;;
12228;SDS011;6177;52.402;9.800;2023-04-28T17:49:41;15.13;;;13.93;;